• Join FlightAware (Why Join?)
  • Login
  • US Flag 
01:37AM EDT


 

Airport Tracker/Info


-or-


 

Live Flight TrackerFlight Track Log ✈ DAL1969 ✈ 16-Jul-2013 ✈ KLAX - KATL

Flight Track Log - Related Links

Times and Time Zones

All times are in EDT time to prevent confusion due to time zone crossing. See the DAL1969 flight status page for this flight to view local times or setup timezone preferences in your user account.

Time Position Orientation Groundspeed Altitude Reporting Facility
EDT Latitude Longitude Course Direction KTS MPH feet Rate Location/Type
09:55AM 33.9333 -118.4333 116° Southeast 184 212 1,600  Level Southern California TRACON
09:56AM 33.9144 -118.4758 242° Southwest 211 243 2,600 2,280 Climbing Los Angeles Center
09:57AM 33.8539 -118.5244 214° Southwest 265 305 5,400 2,520 Climbing Los Angeles Center
09:58AM 33.7707 -118.6276 132° Southeast  Level FlightAware Approximate
09:58AM 33.7861 -118.5231 179° South 272 313 7,800  Level Los Angeles Center
09:59AM 33.6867 -118.5209 134° Southeast  Level FlightAware Approximate
09:59AM 33.7147 -118.4981 164° South 287 330 10,300  Level Los Angeles Center
10:00AM 33.6526 -118.3816 116° Southeast  Level FlightAware Approximate
10:00AM 33.7011 -118.3728 97° East 322 371 12,600  Level Los Angeles Center
10:01AM 33.6978 -118.2600 92° East 351 404 14,600 1,680 Climbing Los Angeles Center
10:02AM 33.6956 -118.1414 91° East 357 411 16,100 1,200 Climbing Los Angeles Center
10:03AM 33.6919 -118.0058 92° East 402 463 17,100 1,320 Climbing Los Angeles Center
10:04AM 33.6875 -117.8356 92° East 426 490 19,200 1,680 Climbing Los Angeles Center
10:05AM 33.6817 -117.6603 92° East 437 503 21,000 1,500 Climbing Los Angeles Center
10:06AM 33.6767 -117.5100 92° East 449 517 22,400 1,260 Climbing Los Angeles Center
10:07AM 33.6719 -117.3553 92° East 463 533 23,700 1,200 Climbing Los Angeles Center
10:08AM 33.6675 -117.1978 92° East 472 543 24,900 1,140 Climbing Los Angeles Center
10:09AM 33.6622 -117.0394 92° East 478 550 26,100 1,260 Climbing Los Angeles Center
10:10AM 33.6575 -116.8453 92° East 488 562 27,500 960 Climbing Los Angeles Center
10:11AM 33.6756 -116.7028 81° East 494 568 28,200 960 Climbing Los Angeles Center
10:12AM 33.7031 -116.5394 79° East 495 570 29,600 1,380 Climbing Los Angeles Center
10:13AM 33.7361 -116.3447 78° East 493 567 31,100 1,080 Climbing Los Angeles Center
10:14AM 33.7625 -116.1822 79° East 493 567 31,900 1,020 Climbing Los Angeles Center
10:15AM 33.7883 -116.0203 79° East 493 567 33,300 1,260 Climbing Los Angeles Center
10:16AM 33.8133 -115.8631 79° East 480 552 34,500 780 Climbing Los Angeles Center
10:17AM 33.8381 -115.7061 79° East 477 549 35,000 240 Climbing Los Angeles Center
10:19AM 33.8606 -115.5494 80° East 476 548 35,000  Level Los Angeles Center
10:20AM 33.8842 -115.3931 80° East 476 548 35,000  Level Los Angeles Center
10:21AM 33.9125 -115.2036 80° East 479 551 35,000  Level Los Angeles Center
10:22AM 33.9361 -115.0461 80° East 480 552 35,000  Level Los Angeles Center
10:23AM 33.9608 -114.8886 79° East 480 552 35,000  Level Los Angeles Center
10:24AM 33.9828 -114.7347 80° East 471 542 35,000  Level Los Angeles Center
10:25AM 34.0081 -114.5789 79° East 473 544 35,000  Level Los Angeles Center
10:26AM 34.0283 -114.4211 81° East 476 548 35,000  Level Los Angeles Center
10:27AM 34.0519 -114.2653 80° East 475 547 35,000  Level Los Angeles Center
10:28AM 34.0775 -114.0783 81° East 472 543 35,000  Level Los Angeles Center
10:29AM 34.0983 -113.9211 81° East 474 545 35,000  Level Los Angeles Center
10:30AM 34.1119 -113.7983 82° East 472 543 35,000  Level Albuquerque Center
10:31AM 34.1339 -113.6428 80° East 472 543 35,000  Level Albuquerque Center
10:32AM 34.1547 -113.4861 81° East 473 544 35,000  Level Albuquerque Center
10:33AM 34.1783 -113.3306 80° East 472 543 35,000  Level Albuquerque Center
10:34AM 34.1989 -113.1739 81° East 472 543 35,000  Level Albuquerque Center
10:35AM 34.2194 -113.0175 81° East 472 543 35,000  Level Albuquerque Center
10:36AM 34.2444 -112.8311 81° East 471 542 35,000  Level Albuquerque Center
10:37AM 34.2647 -112.6742 81° East 471 542 35,000  Level Albuquerque Center
10:38AM 34.2858 -112.5194 81° East 469 540 35,000  Level Albuquerque Center
10:39AM 34.3056 -112.3631 81° East 468 539 35,000  Level Albuquerque Center
10:40AM 34.3244 -112.2061 82° East 471 542 35,000  Level Albuquerque Center
10:41AM 34.3436 -112.0481 82° East 471 542 35,000  Level Albuquerque Center
10:42AM 34.3636 -111.8900 81° East 472 543 35,000  Level Albuquerque Center
10:43AM 34.3861 -111.6986 82° East 474 545 35,000  Level Albuquerque Center
10:44AM 34.4050 -111.5397 82° East 474 545 35,000  Level Albuquerque Center
10:45AM 34.4253 -111.3808 81° East 475 547 35,000  Level Albuquerque Center
10:46AM 34.4428 -111.2228 82° East 474 545 35,000  Level Albuquerque Center
10:47AM 34.4606 -111.0644 82° East 474 545 35,000  Level Albuquerque Center
10:48AM 34.4786 -110.9078 82° East 472 543 35,000  Level Albuquerque Center
10:49AM 34.4964 -110.7514 82° East 469 540 35,000  Level Albuquerque Center
10:50AM 34.5181 -110.5622 82° East 471 542 35,000  Level Albuquerque Center
10:51AM 34.5356 -110.4006 82° East 470 541 35,000  Level Albuquerque Center
10:52AM 34.5525 -110.2503 82° East 470 541 35,000  Level Albuquerque Center
10:53AM 34.5706 -110.0731 83° East 473 544 35,000  Level Albuquerque Center
10:54AM 34.5872 -109.9233 82° East 470 541 35,000  Level Albuquerque Center
10:55AM 34.6044 -109.7469 83° East 471 542 35,000  Level Albuquerque Center
10:56AM 34.6192 -109.5972 83° East 471 542 35,000  Level Albuquerque Center
10:57AM 34.6356 -109.4450 83° East 473 544 35,000  Level Albuquerque Center
10:59AM 34.6525 -109.2697 83° East 470 541 35,000  Level Albuquerque Center
11:00AM 34.6683 -109.1192 83° East 470 541 35,000  Level Albuquerque Center
11:01AM 34.6853 -108.9422 83° East 472 543 35,000  Level Albuquerque Center
11:02AM 34.6997 -108.7908 83° East 472 543 35,000  Level Albuquerque Center
11:03AM 34.7164 -108.6131 83° East 475 547 35,000  Level Albuquerque Center
11:04AM 34.7311 -108.4536 84° East 476 548 35,000  Level Albuquerque Center
11:05AM 34.7464 -108.2939 83° East 476 548 35,000  Level Albuquerque Center
11:06AM 34.7594 -108.1339 84° East 477 549 35,000  Level Albuquerque Center
11:07AM 34.7742 -107.9728 84° East 478 550 35,000  Level Albuquerque Center
11:08AM 34.7886 -107.8128 84° East 479 551 35,000  Level Albuquerque Center
11:09AM 34.8050 -107.6194 84° East 480 552 35,000  Level Albuquerque Center
11:10AM 34.8189 -107.4581 84° East 480 552 35,000  Level Albuquerque Center
11:11AM 34.8308 -107.2967 85° East 481 554 35,000  Level Albuquerque Center
11:12AM 34.8467 -107.1256 84° East 482 555 35,000  Level Albuquerque Center
11:13AM 34.8606 -106.9450 85° East 480 552 35,000  Level Albuquerque Center
11:14AM 34.8717 -106.7917 85° East 477 549 35,000  Level Albuquerque Center
11:15AM 34.8833 -106.6369 85° East 478 550 35,000  Level Albuquerque Center
11:16AM 34.8958 -106.4631 85° East 487 560 35,000  Level Albuquerque Center
11:17AM 34.9081 -106.3044 85° East 477 549 35,000 420 Level Albuquerque Center
11:18AM 34.9197 -106.1450 85° East 473 544 35,900 960 Climbing Albuquerque Center
11:19AM 34.9331 -105.9544 85° East 472 543 37,000 480 Climbing Albuquerque Center
11:20AM 34.9450 -105.7947 85° East 461 531 37,000  Level Albuquerque Center
11:21AM 34.9550 -105.6378 86° East 461 531 37,000  Level Albuquerque Center
11:22AM 34.9653 -105.4792 85° East 465 535 37,000  Level Albuquerque Center
11:23AM 34.9767 -105.3208 85° East 467 537 37,000  Level Albuquerque Center
11:24AM 34.9864 -105.1619 86° East 468 539 37,000  Level Albuquerque Center
11:25AM 34.9975 -105.0022 85° East 470 541 37,000  Level Albuquerque Center
11:26AM 35.0094 -104.8136 86° East 477 549 37,000  Level Albuquerque Center
11:27AM 35.0189 -104.6519 86° East 476 548 37,000  Level Albuquerque Center
11:28AM 35.0289 -104.4919 86° East 473 544 37,000  Level Albuquerque Center
11:30AM 35.0364 -104.3309 87° East  Level FlightAware Approximate
11:30AM 35.0381 -104.3317 87° East 474 545 37,000  Level Albuquerque Center
11:31AM 35.0472 -104.1725 86° East 474 545 37,000  Level Albuquerque Center
11:32AM 35.0564 -104.0139 86° East 472 543 37,000  Level Albuquerque Center
11:33AM 35.0675 -103.8289 86° East 469 540 37,000  Level Albuquerque Center
11:34AM 35.0758 -103.6711 86° East 465 535 37,000  Level Albuquerque Center
11:35AM 35.0839 -103.5144 86° East 462 532 37,000  Level Albuquerque Center
11:36AM 35.0917 -103.3592 86° East 458 527 37,000  Level Albuquerque Center
11:37AM 35.0997 -103.2042 86° East 455 524 37,000  Level Albuquerque Center
11:38AM 35.1067 -103.0503 87° East 452 520 37,000  Level Albuquerque Center
11:39AM 35.1136 -102.8731 87° East 453 521 37,000  Level Albuquerque Center
11:40AM 35.1211 -102.7200 87° East 453 521 37,000  Level Albuquerque Center
11:41AM 35.1289 -102.5697 86° East 447 514 37,000  Level Albuquerque Center
11:42AM 35.1350 -102.4175 87° East 448 516 37,000  Level Albuquerque Center
11:43AM 35.1408 -102.2658 87° East 449 517 37,000  Level Albuquerque Center
11:44AM 35.1461 -102.1150 88° East 448 516 37,000  Level Albuquerque Center
11:45AM 35.1547 -101.9517 86° East 444 511 37,000  Level Albuquerque Center
11:46AM 35.1594 -101.8008 88° East 442 509 37,000  Level Albuquerque Center
11:47AM 35.1656 -101.6533 87° East 440 506 37,000  Level Albuquerque Center
11:48AM 35.1725 -101.4758 87° East 434 499 37,000  Level Albuquerque Center
11:49AM 35.1756 -101.3275 89° East 428 493 37,000  Level Albuquerque Center
11:50AM 35.1800 -101.1872 88° East 420 483 37,000  Level Albuquerque Center
11:51AM 35.1844 -101.0500 88° East 412 474 37,000  Level Albuquerque Center
11:52AM 35.1886 -100.9122 88° East 408 470 37,000  Level Albuquerque Center
11:53AM 35.1928 -100.7753 88° East 407 468 37,000  Level Albuquerque Center
11:54AM 35.1969 -100.6350 88° East 408 470 37,000  Level Albuquerque Center
11:55AM 35.1997 -100.4928 89° East 413 475 37,000  Level Albuquerque Center
11:56AM 35.2044 -100.3194 88° East 422 486 37,000  Level Albuquerque Center
11:57AM 35.2078 -100.1725 88° East 430 495 37,000  Level Albuquerque Center
11:58AM 35.2106 -100.0239 89° East 435 501 37,000  Level Albuquerque Center
11:59AM 35.2150 -99.8733 88° East 441 507 37,000  Level Albuquerque Center
12:00PM 35.2181 -99.7222 89° East 445 512 37,000  Level Albuquerque Center
12:01PM 35.2211 -99.5708 89° East 445 512 37,000  Level Albuquerque Center
12:02PM 35.2231 -99.4178 89° East 450 518 37,000  Level Albuquerque Center
12:04PM 35.2256 -99.2369 89° East 446 513 37,000  Level Albuquerque Center
12:05PM 35.2289 -99.0844 88° East 449 517 37,000  Level Albuquerque Center
12:06PM 35.2306 -98.9317 89° East 450 518 37,000  Level Albuquerque Center
12:07PM 35.2322 -98.7428 89° East 440 506 37,000  Level Fort Worth Center
12:08PM 35.2339 -98.5903 89° East 440 506 37,000  Level Fort Worth Center
12:09PM 35.2328 -98.4633 91° East 435 501 37,000  Level Fort Worth Center
12:10PM 35.2361 -98.3083 88° East 435 501 37,000  Level Fort Worth Center
12:11PM 35.2372 -98.1406 89° East 445 512 37,000  Level Fort Worth Center
12:12PM 35.2381 -97.9856 90° East 445 512 37,000  Level Fort Worth Center
12:13PM 35.2386 -97.8356 90° East 445 512 37,000  Level Fort Worth Center
12:14PM 35.2369 -97.6806 91° East 445 512 37,000  Level Fort Worth Center
12:15PM 35.2353 -97.5253 91° East 445 512 37,000  Level Fort Worth Center
12:16PM 35.2436 -97.3678 86° East 450 518 37,000  Level Fort Worth Center
12:17PM 35.2414 -97.2153 91° East 455 524 37,000  Level Fort Worth Center
12:18PM 35.2347 -97.0578 93° East 460 529 37,000  Level Fort Worth Center
12:19PM 35.2281 -96.9078 93° East 455 524 37,000  Level Fort Worth Center
12:20PM 35.2167 -96.7528 95° East 455 524 37,000  Level Fort Worth Center
12:21PM 35.2033 -96.5956 96° East 455 524 37,000  Level Fort Worth Center
12:22PM 35.1919 -96.4406 95° East 460 529 37,000  Level Fort Worth Center
12:23PM 35.1781 -96.2858 96° East 460 529 37,000  Level Fort Worth Center
12:24PM 35.1683 -96.1336 94° East 460 529 37,000  Level Fort Worth Center
12:25PM 35.1394 -95.9817 103° East 460 529 37,000  Level Fort Worth Center
12:26PM 35.0900 -95.8608 117° Southeast 445 512 37,000  Level Fort Worth Center
12:28PM 35.0108 -95.5772 109° East 440 506 37,000  Level Memphis Center
12:29PM 34.9983 -95.4219 96° East 446 513 37,000  Level Memphis Center
12:30PM 34.9881 -95.2667 95° East 451 519 37,000  Level Memphis Center
12:31PM 34.9753 -95.1114 96° East 451 519 37,000  Level Memphis Center
12:32PM 34.9622 -94.9586 96° East 457 526 37,000  Level Memphis Center
12:33PM 34.9514 -94.7983 95° East 462 532 37,000  Level Memphis Center
12:34PM 34.9344 -94.6253 97° East 467 537 37,000  Level Memphis Center
12:35PM 34.9208 -94.4700 96° East 467 537 37,000  Level Memphis Center
12:36PM 34.9111 -94.3150 94° East 467 537 37,000  Level Memphis Center
12:37PM 34.8933 -94.1572 98° East 467 537 37,000  Level Memphis Center
12:38PM 34.8872 -94.0053 93° East 462 532 37,000  Level Memphis Center
12:39PM 34.8628 -93.8422 100° East 467 537 37,000  Level Memphis Center
12:40PM 34.8522 -93.6925 95° East 461 531 37,000  Level Memphis Center
12:41PM 34.8375 -93.5350 96° East 466 536 37,000  Level Memphis Center
12:42PM 34.8228 -93.3800 97° East 466 536 37,000  Level Memphis Center
12:43PM 34.8075 -93.2278 97° East 466 536 37,000  Level Memphis Center
12:44PM 34.7942 -93.0731 96° East 466 536 37,000  Level Memphis Center
12:45PM 34.7767 -92.9233 98° East 466 536 37,000  Level Memphis Center
12:46PM 34.7631 -92.7714 96° East 458 527 37,000  Level Memphis Center
12:47PM 34.7469 -92.6217 97° East 453 521 37,000  Level Memphis Center
12:48PM 34.7328 -92.4722 97° East 453 521 37,000  Level Memphis Center
12:49PM 34.7167 -92.3203 97° East 448 516 37,000  Level Memphis Center
12:50PM 34.7022 -92.1633 96° East 448 516 37,000  Level Memphis Center
12:51PM 34.6856 -92.0139 98° East 453 521 37,000  Level Memphis Center
12:52PM 34.6686 -91.8622 98° East 453 521 37,000  Level Memphis Center
12:53PM 34.6536 -91.7128 97° East 447 514 37,000  Level Memphis Center
12:54PM 34.6367 -91.5561 97° East 447 514 37,000  Level Memphis Center
12:55PM 34.6169 -91.4019 99° East 456 525 37,000  Level Memphis Center
12:56PM 34.6017 -91.2478 97° East 470 541 37,000  Level Memphis Center
12:57PM 34.5817 -91.0936 99° East 465 535 37,000  Level Memphis Center
12:58PM 34.5658 -90.9397 97° East 462 532 37,000  Level Memphis Center
12:59PM 34.5475 -90.7833 98° East 462 532 37,000  Level Memphis Center
01:00PM 34.5272 -90.6319 99° East 467 537 37,000  Level Memphis Center
01:01PM 34.5086 -90.4806 98° East 457 526 37,000  Level Memphis Center
01:02PM 34.4900 -90.3269 98° East 457 526 37,000  Level Memphis Center
01:03PM 34.4753 -90.1908 97° East 462 532 37,000  Level Memphis Center
01:04PM 34.4539 -90.0397 100° East 462 532 37,000  Level Memphis Center
01:05PM 34.4347 -89.8836 98° East 468 539 37,000  Level Memphis Center
01:06PM 34.4153 -89.7303 99° East 468 539 37,000 -360 Level Memphis Center
01:07PM 34.3956 -89.5769 99° East 463 533 36,300 -960 Descending Memphis Center
01:08PM 34.3778 -89.4261 98° East 463 533 35,100 -1,020 Descending Memphis Center
01:09PM 34.3578 -89.2703 99° East 463 533 34,300 -960 Descending Memphis Center
01:10PM 34.3375 -89.1197 99° East 463 533 33,200 -660 Descending Memphis Center
01:11PM 34.3192 -88.9664 98° East 463 533 33,000 -120 Descending Memphis Center
01:12PM 34.3031 -88.8333 98° East 463 533 33,000  Level Memphis Center
01:13PM 34.2781 -88.6731 101° East 449 517 33,000  Level Memphis Center
01:14PM 34.2572 -88.5200 99° East 449 517 33,000  Level Memphis Center
01:15PM 34.2381 -88.3672 99° East 449 517 33,000  Level Memphis Center
01:16PM 34.2144 -88.1969 99° East 460 529 33,000  Level Memphis Center
01:17PM 34.1928 -88.0394 99° East 468 539 33,000  Level Memphis Center
01:18PM 34.1544 -87.7889 100° East 476 548 33,000  Level Atlanta Center
01:19PM 34.1339 -87.6400 99° East 466 536 33,000  Level Atlanta Center
01:20PM 34.1256 -87.4992 94° East 466 536 33,000  Level Atlanta Center
01:21PM 34.1192 -87.3458 93° East 466 536 33,000  Level Atlanta Center
01:22PM 34.1108 -87.1925 94° East 460 529 33,000  Level Atlanta Center
01:23PM 34.1022 -87.0392 94° East 460 529 33,000  Level Atlanta Center
01:24PM 34.0953 -86.8883 93° East 460 529 33,000  Level Atlanta Center
01:25PM 34.0839 -86.7375 95° East 460 529 33,000  Level Atlanta Center
01:26PM 34.0747 -86.5894 94° East 455 524 33,000 -300 Level Atlanta Center
01:27PM 34.0672 -86.4386 93° East 449 517 32,500 -900 Descending Atlanta Center
01:28PM 34.0556 -86.2903 95° East 449 517 31,200 -1,260 Descending Atlanta Center
01:29PM 34.0456 -86.1372 94° East 444 511 30,000 -1,620 Descending Atlanta Center
01:30PM 34.0356 -85.9864 95° East 444 511 28,000 -2,220 Descending Atlanta Center
01:31PM 34.0275 -85.8386 94° East 444 511 25,600 -2,700 Descending Atlanta Center
01:32PM 34.0150 -85.6853 96° East 423 487 22,600 -2,940 Descending Atlanta Center
01:33PM 34.0064 -85.5472 94° East 415 478 19,800 -2,400 Descending Atlanta Center
01:34PM 33.9972 -85.4269 95° East 410 472 17,800 -2,040 Descending Atlanta Center
01:35PM 33.9881 -85.3014 95° East 393 452 15,800 -2,340 Descending Atlanta Center
01:36PM 33.9769 -85.1811 96° East 376 433 13,200 -2,040 Descending Atlanta Center
01:37PM 33.9400 -85.0881 116° Southeast 324 373 11,800 -1,800 Descending Atlanta Center
01:38PM 33.9031 -85.0075 119° Southeast 291 335 9,600 -1,440 Descending Atlanta Center
01:39PM 33.8558 -84.9319 127° Southeast 279 321 9,000 -360 Descending Atlanta Center
01:40PM 33.7764 -84.9261 177° South 264 304 9,000 -600 Level Atlanta Center
01:41PM 33.6972 -84.9253 179° South 276 318 7,800 -960 Descending Atlanta Center
01:42PM 33.6306 -84.9019 164° South 264 304 7,100 -840 Descending Atlanta Center
01:43PM 33.6311 -84.8247 89° East 192 221 6,200 -600 Descending Atlanta Center
01:44PM 33.6314 -84.7500 90° East 192 221 5,900 -720 Descending Atlanta Center
01:45PM 33.6297 -84.6825 92° East 199 229 4,800 -1,140 Descending Atlanta Center